createdAt,value
2022-09-17T00:19:02.668Z,12.80
2022-09-17T00:21:30.920Z,12.30
2022-09-17T00:23:59.622Z,12.30
2022-09-17T00:26:27.858Z,12.40
2022-09-17T00:28:56.523Z,12.50
2022-09-17T00:31:25.274Z,12.50
2022-09-17T00:33:55.757Z,12.60
2022-09-17T00:46:32.613Z,12.30
2022-09-17T00:49:02.636Z,12.20
2022-09-17T00:51:34.620Z,12.20
2022-09-17T00:54:03.928Z,12.30
2022-09-17T00:56:33.713Z,12.30
2022-09-17T00:59:02.039Z,12.20
2022-09-17T01:01:31.415Z,12.20
2022-09-17T01:03:59.385Z,12.30
2022-09-17T01:06:32.510Z,12.40
2022-09-17T01:09:14.351Z,12.30
2022-09-17T01:11:52.401Z,12.20
2022-09-17T01:14:24.715Z,12.30
2022-09-17T01:16:58.691Z,12.30
2022-09-17T01:19:34.944Z,12.30
2022-09-17T01:22:04.641Z,12.30
2022-09-17T01:24:45.963Z,12.30
2022-09-17T01:27:34.611Z,12.20
2022-09-17T01:30:26.391Z,12.30
2022-09-17T01:32:59.471Z,12.30
2022-09-17T01:35:31.298Z,12.30
2022-09-17T01:38:01.713Z,12.20
2022-09-17T01:40:32.452Z,12.20
2022-09-17T01:43:04.215Z,12.30
2022-09-17T01:45:36.274Z,12.40
2022-09-17T01:48:08.353Z,12.30
2022-09-17T01:50:38.973Z,12.30
2022-09-17T01:53:08.639Z,12.30
2022-09-17T01:55:38.369Z,12.40
2022-09-17T01:58:08.809Z,12.40
2022-09-17T02:00:38.575Z,12.50
2022-09-17T02:03:10.192Z,12.40
2022-09-17T02:05:40.695Z,12.40
2022-09-17T02:08:10.368Z,12.40
2022-09-17T02:10:40.422Z,12.40
2022-09-17T02:13:10.088Z,12.50
2022-09-17T02:15:40.691Z,12.50
2022-09-17T02:18:12.711Z,12.60
2022-09-17T02:20:42.812Z,12.50
2022-09-17T02:23:14.124Z,12.50
2022-09-17T02:25:43.984Z,12.40
2022-09-17T02:28:15.032Z,12.40
2022-09-17T02:30:42.837Z,12.40
2022-09-17T02:33:14.426Z,12.50
2022-09-17T02:35:43.546Z,12.40
2022-09-17T02:38:11.719Z,12.40
2022-09-17T02:40:45.565Z,12.50
2022-09-17T02:43:17.377Z,12.50
2022-09-17T02:45:50.539Z,12.60
2022-09-17T02:48:25.669Z,12.60
2022-09-17T02:51:01.034Z,12.50
2022-09-17T02:53:33.615Z,12.40
2022-09-17T02:56:03.801Z,12.40
2022-09-17T02:58:34.157Z,12.40
2022-09-17T03:01:05.526Z,12.40
2022-09-17T03:03:36.339Z,12.40
2022-09-17T03:06:04.198Z,12.30
2022-09-17T03:08:35.269Z,12.30
2022-09-17T03:11:04.727Z,12.30
2022-09-17T03:13:32.555Z,12.30
2022-09-17T03:16:00.387Z,12.30
2022-09-17T03:18:28.222Z,12.30
2022-09-17T03:20:57.406Z,12.40
2022-09-17T03:23:25.546Z,12.30
2022-09-17T03:25:53.558Z,12.30
2022-09-17T03:28:21.362Z,12.30
2022-09-17T03:30:49.182Z,12.20
2022-09-17T03:33:17.001Z,12.20
2022-09-17T03:35:44.814Z,12.20
2022-09-17T03:38:14.280Z,12.20
2022-09-17T03:40:42.416Z,12.10
2022-09-17T03:43:10.234Z,12.10
2022-09-17T03:45:38.045Z,12.10
2022-09-17T03:48:05.853Z,11.90
2022-09-17T03:50:33.631Z,12.00
2022-09-17T03:53:01.420Z,11.90
2022-09-17T03:55:30.595Z,11.90
2022-09-17T03:57:58.387Z,11.90
2022-09-17T04:00:26.251Z,11.90
2022-09-17T04:02:54.106Z,12.00
2022-09-17T04:05:21.997Z,11.90
2022-09-17T04:07:49.796Z,11.90
2022-09-17T04:10:17.590Z,11.90
2022-09-17T04:12:46.791Z,12.00
2022-09-17T04:15:14.601Z,11.90
2022-09-17T04:17:42.411Z,12.00
2022-09-17T04:22:40.539Z,11.90
2022-09-17T04:25:08.782Z,11.90
2022-09-17T04:27:36.635Z,11.90
2022-09-17T04:30:06.325Z,11.90
2022-09-17T04:32:34.434Z,11.90
2022-09-17T04:35:02.249Z,11.90
2022-09-17T04:37:30.087Z,11.90
2022-09-17T04:39:57.991Z,11.80
2022-09-17T04:42:25.828Z,11.70
2022-09-17T04:44:53.609Z,11.70
2022-09-17T04:47:22.761Z,11.80
2022-09-17T04:49:50.559Z,11.90
2022-09-17T04:52:18.661Z,11.90
2022-09-17T04:54:46.526Z,11.90
2022-09-17T04:57:14.351Z,11.80
2022-09-17T04:59:42.168Z,11.80
2022-09-17T05:02:09.998Z,11.80
2022-09-17T05:04:39.204Z,11.90
2022-09-17T05:07:08.398Z,11.90
2022-09-17T05:09:38.686Z,11.80
2022-09-17T05:12:07.068Z,11.90
2022-09-17T05:14:34.869Z,12.00
2022-09-17T05:17:02.694Z,11.90
2022-09-17T05:19:30.930Z,11.80
2022-09-17T05:22:00.110Z,11.80
2022-09-17T05:24:28.227Z,11.90
2022-09-17T05:26:56.049Z,11.90
2022-09-17T05:29:23.886Z,11.90
2022-09-17T05:31:51.704Z,11.90
2022-09-17T05:34:19.487Z,11.90
2022-09-17T05:36:47.293Z,11.90
2022-09-17T05:39:16.462Z,11.90
2022-09-17T05:41:44.273Z,11.90
2022-09-17T05:44:16.014Z,11.90
2022-09-17T05:46:46.127Z,12.00
2022-09-17T05:49:15.094Z,12.00
2022-09-17T05:51:42.915Z,11.90
2022-09-17T05:54:10.710Z,11.90
2022-09-17T05:56:39.869Z,11.80
2022-09-17T05:59:07.693Z,11.70
2022-09-17T06:01:35.529Z,11.90
2022-09-17T06:04:03.818Z,11.60
2022-09-17T06:06:31.668Z,12.10
2022-09-17T06:09:00.631Z,12.00
2022-09-17T06:11:28.495Z,12.00
2022-09-17T06:13:57.666Z,12.00
2022-09-17T06:16:25.675Z,12.20
2022-09-17T06:21:24.486Z,12.60
2022-09-17T06:26:22.949Z,12.50
2022-09-17T06:28:50.765Z,12.70
2022-09-17T06:31:20.013Z,12.40
2022-09-17T06:36:17.071Z,12.30
2022-09-17T06:38:44.876Z,12.30
2022-09-17T06:41:14.602Z,12.40
2022-09-17T06:43:42.649Z,12.30
2022-09-17T06:46:11.153Z,12.20
2022-09-17T06:48:40.338Z,12.40
2022-09-17T06:51:08.971Z,12.70
2022-09-17T06:53:37.881Z,12.70
2022-09-17T06:56:06.867Z,12.70
2022-09-17T06:58:37.110Z,12.90
2022-09-17T09:05:00.221Z,19.70
2022-09-17T09:07:30.162Z,19.70
2022-09-17T09:10:06.321Z,19.80
2022-09-17T09:12:35.273Z,19.70
2022-09-17T09:15:07.983Z,19.30
2022-09-17T09:17:39.533Z,18.60
2022-09-17T09:20:13.744Z,18.50
2022-09-17T09:22:46.568Z,17.90
2022-09-17T09:25:23.067Z,18.30
2022-09-17T09:28:15.621Z,18.10
2022-09-17T09:30:48.875Z,18.30
2022-09-17T09:33:18.622Z,18.50
2022-09-17T09:35:47.858Z,18.50
2022-09-17T09:38:19.430Z,19.40
2022-09-17T09:40:49.830Z,20.00
2022-09-17T09:43:20.004Z,20.60
2022-09-17T09:46:07.666Z,21.10
2022-09-17T09:48:38.427Z,21.50
2022-09-17T09:51:15.868Z,21.40
2022-09-17T09:53:48.496Z,21.10
2022-09-17T09:56:25.912Z,21.00
2022-09-17T09:58:53.751Z,20.10
2022-09-17T10:01:22.268Z,20.50
2022-09-17T10:03:51.972Z,20.00
2022-09-17T10:06:21.713Z,19.30
2022-09-17T10:09:04.424Z,18.90
2022-09-17T10:11:33.503Z,18.80
2022-09-17T10:14:15.058Z,18.60
2022-09-17T10:16:42.857Z,18.80
2022-09-17T10:19:14.213Z,18.60
2022-09-17T10:21:43.946Z,17.80
2022-09-17T10:24:17.761Z,17.30
2022-09-17T10:26:45.726Z,17.30
2022-09-17T10:29:14.891Z,16.80
2022-09-17T10:31:49.758Z,16.50
2022-09-17T10:34:21.402Z,16.80
2022-09-17T10:36:50.607Z,17.60
2022-09-17T10:39:28.987Z,18.90
2022-09-17T10:41:57.665Z,19.50
2022-09-17T10:44:26.172Z,19.60
2022-09-17T10:46:54.559Z,20.20
2022-09-17T10:49:29.684Z,19.70
2022-09-17T10:52:06.539Z,19.60
2022-09-17T10:54:41.416Z,19.50
2022-09-17T10:57:11.093Z,19.10
2022-09-17T10:59:44.178Z,19.00
2022-09-17T11:02:29.793Z,18.80
2022-09-17T11:05:03.849Z,18.80
2022-09-17T11:07:39.546Z,18.60
2022-09-17T11:10:12.449Z,18.60
2022-09-17T11:12:48.163Z,18.60
2022-09-17T11:15:22.970Z,18.80
2022-09-17T11:18:01.686Z,18.70
2022-09-17T11:20:39.409Z,18.50
2022-09-17T11:23:22.343Z,18.20
2022-09-17T11:25:57.147Z,18.30
2022-09-17T11:28:34.511Z,18.90
2022-09-17T11:31:10.597Z,18.90
2022-09-17T11:33:56.144Z,18.50
2022-09-17T11:36:26.259Z,18.80
2022-09-17T11:38:57.666Z,18.50
2022-09-17T11:41:28.690Z,18.10
2022-09-17T11:44:01.964Z,17.70
2022-09-17T11:46:31.868Z,17.90
2022-09-17T11:49:03.494Z,18.80
2022-09-17T11:51:33.829Z,18.80
2022-09-17T11:54:05.114Z,19.50
2022-09-17T11:56:35.887Z,19.80
2022-09-17T11:59:06.485Z,19.60
2022-09-17T12:01:45.340Z,19.10
2022-09-17T12:04:23.540Z,19.00
2022-09-17T12:06:55.758Z,19.30
2022-09-17T12:09:27.101Z,19.70
2022-09-17T12:11:58.916Z,19.80
2022-09-17T12:14:30.134Z,19.70
2022-09-17T12:16:59.583Z,20.20
2022-09-17T12:19:30.909Z,20.20
2022-09-17T12:22:00.933Z,19.20
2022-09-17T12:24:30.877Z,19.30
2022-09-17T12:27:04.475Z,19.90
2022-09-17T12:29:37.820Z,19.80
2022-09-17T12:32:15.705Z,20.70
2022-09-17T12:34:51.924Z,21.40
2022-09-17T12:37:23.197Z,21.30
2022-09-17T12:40:08.677Z,22.10
2022-09-17T12:42:48.064Z,22.60
2022-09-17T12:45:33.853Z,23.10
2022-09-17T12:48:19.385Z,22.20
2022-09-17T12:50:52.361Z,23.00
2022-09-17T12:53:23.356Z,24.10
2022-09-17T12:55:56.694Z,23.10
2022-09-17T12:58:34.286Z,22.80
2022-09-17T13:01:04.415Z,22.80
2022-09-17T13:03:34.613Z,22.30
2022-09-17T13:06:11.701Z,22.90
2022-09-17T13:08:47.429Z,23.10
2022-09-17T13:11:39.075Z,22.20
2022-09-17T13:14:14.686Z,23.00
2022-09-17T13:16:44.782Z,22.90
2022-09-17T13:19:19.109Z,22.70
2022-09-17T13:21:50.750Z,22.80
2022-09-17T13:24:19.635Z,23.00
2022-09-17T13:26:47.516Z,22.80
2022-09-17T13:29:44.870Z,22.90
2022-09-17T13:32:35.447Z,23.20
2022-09-17T13:35:33.058Z,23.50
2022-09-17T13:38:01.664Z,23.00
2022-09-17T13:40:30.850Z,22.10
2022-09-17T13:42:59.367Z,21.50
2022-09-17T13:45:28.588Z,20.80
2022-09-17T13:47:58.085Z,20.60
2022-09-17T13:50:27.706Z,20.30
2022-09-17T13:52:56.749Z,19.80
2022-09-17T13:55:36.435Z,19.30
2022-09-17T13:58:05.405Z,19.40
2022-09-17T14:00:51.038Z,19.70
2022-09-17T14:03:37.844Z,19.70
2022-09-17T14:06:22.003Z,19.80
2022-09-17T14:08:50.895Z,20.20
2022-09-17T14:11:37.090Z,20.30
2022-09-17T14:14:37.005Z,21.10
2022-09-17T14:17:11.980Z,21.10
2022-09-17T14:19:51.093Z,21.80
2022-09-17T14:22:23.523Z,21.80
2022-09-17T14:24:52.975Z,21.90
2022-09-17T14:27:42.739Z,21.60
2022-09-17T14:30:15.133Z,22.00
2022-09-17T14:32:45.842Z,21.10
2022-09-17T14:35:19.765Z,21.70
2022-09-17T14:37:50.800Z,21.40
2022-09-17T14:40:19.816Z,21.70
2022-09-17T14:42:49.464Z,21.70
2022-09-17T14:45:26.010Z,21.60
2022-09-17T14:48:08.723Z,21.70
2022-09-17T14:50:38.343Z,21.90
2022-09-17T14:53:08.920Z,21.70
2022-09-17T14:55:41.649Z,22.00
2022-09-17T14:58:23.684Z,22.40
2022-09-17T15:00:53.976Z,22.40
2022-09-17T15:03:22.692Z,22.80
2022-09-17T15:05:52.222Z,22.20
2022-09-17T15:08:21.673Z,21.70
2022-09-17T15:10:50.605Z,21.20
2022-09-17T15:13:20.101Z,20.70
2022-09-17T15:15:52.350Z,20.50
2022-09-17T15:18:20.553Z,20.10
2022-09-17T15:20:48.927Z,20.10
2022-09-17T15:23:21.538Z,20.10
2022-09-17T15:25:51.727Z,20.00
2022-09-17T15:28:24.956Z,20.00
2022-09-17T15:30:52.918Z,20.00
2022-09-17T15:33:23.116Z,20.00
2022-09-17T15:36:00.922Z,20.00
2022-09-17T15:38:32.965Z,19.80
2022-09-17T15:41:16.574Z,19.70
2022-09-17T15:43:49.416Z,19.70
2022-09-17T15:46:23.468Z,19.30
2022-09-17T15:48:51.336Z,19.10
2022-09-17T15:51:23.905Z,19.00
2022-09-17T15:53:54.339Z,18.90
2022-09-17T15:56:23.845Z,18.70
2022-09-17T15:58:54.318Z,18.40
2022-09-17T16:01:40.220Z,18.50
2022-09-17T16:04:22.982Z,18.00
2022-09-17T16:06:54.069Z,18.40
2022-09-17T16:09:39.998Z,17.70
2022-09-17T16:12:08.035Z,17.70
2022-09-17T16:14:35.885Z,17.70
2022-09-17T16:17:10.876Z,17.40
2022-09-17T16:19:38.726Z,17.60
2022-09-17T16:22:06.577Z,17.30
2022-09-17T16:24:34.399Z,17.30
2022-09-17T16:27:04.539Z,17.30
2022-09-17T16:29:32.549Z,17.40
2022-09-17T16:32:00.392Z,17.40
2022-09-17T16:34:28.258Z,17.40
2022-09-17T16:36:56.097Z,17.30
2022-09-17T16:39:23.971Z,17.40
2022-09-17T16:41:51.804Z,17.30
2022-09-17T16:44:20.988Z,17.10
2022-09-17T16:46:48.892Z,17.10
2022-09-17T16:49:16.845Z,16.80
2022-09-17T16:51:44.678Z,16.80
2022-09-17T16:54:12.471Z,16.60
2022-09-17T16:56:40.323Z,16.40
2022-09-17T16:59:08.616Z,16.60
2022-09-17T17:01:38.988Z,16.40
2022-09-17T17:04:06.868Z,16.30
2022-09-17T17:06:34.682Z,16.30
2022-09-17T17:09:02.543Z,16.30
2022-09-17T17:11:30.465Z,16.20
2022-09-17T17:13:58.477Z,16.00
2022-09-17T17:16:26.535Z,16.00
2022-09-17T17:18:55.746Z,15.90
2022-09-17T17:21:23.609Z,15.80
2022-09-17T17:23:51.439Z,15.70
2022-09-17T17:26:19.358Z,15.80
2022-09-17T17:28:48.752Z,15.60
2022-09-17T17:31:16.656Z,15.40
2022-09-17T17:33:44.620Z,15.50
2022-09-17T17:36:14.098Z,15.60
2022-09-17T17:38:42.965Z,15.60
2022-09-17T17:41:11.691Z,15.20
2022-09-17T17:43:39.744Z,15.40
2022-09-17T17:46:08.392Z,15.50
2022-09-17T17:48:36.330Z,15.50
2022-09-17T17:51:04.678Z,15.50
2022-09-17T17:53:34.033Z,15.40
2022-09-17T17:56:02.465Z,15.20
2022-09-17T17:58:30.555Z,15.20
2022-09-17T18:00:58.475Z,15.20
2022-09-17T18:03:26.451Z,15.60
2022-09-17T18:05:56.364Z,15.30
2022-09-17T18:08:24.224Z,15.30
2022-09-17T18:10:54.011Z,15.30
2022-09-17T18:13:22.064Z,15.30
2022-09-17T18:15:53.968Z,15.30
2022-09-17T18:18:22.134Z,15.40
2022-09-17T18:20:51.109Z,15.30
2022-09-17T18:23:19.268Z,15.10
2022-09-17T18:25:55.152Z,15.10
2022-09-17T18:28:23.120Z,15.10
2022-09-17T18:30:51.002Z,15.20
2022-09-17T18:33:20.213Z,15.10
2022-09-17T18:35:48.241Z,15.00
2022-09-17T18:38:16.182Z,15.10
2022-09-17T18:40:44.623Z,15.20
2022-09-17T18:43:13.839Z,15.20
2022-09-17T18:48:12.363Z,15.00
2022-09-17T18:50:40.193Z,14.80
2022-09-17T18:53:07.987Z,14.50
2022-09-17T18:55:35.833Z,14.60
2022-09-17T18:58:03.696Z,14.50
2022-09-17T19:00:32.979Z,14.40
2022-09-17T19:03:00.904Z,14.40
2022-09-17T19:05:29.528Z,14.40
2022-09-17T19:07:57.371Z,14.50
2022-09-17T19:10:25.237Z,14.40
2022-09-17T19:12:53.051Z,14.50
2022-09-17T19:15:24.030Z,14.30
2022-09-17T19:17:55.652Z,14.20
2022-09-17T19:20:23.759Z,14.10
2022-09-17T19:22:51.752Z,14.20
2022-09-17T19:25:20.635Z,14.30
2022-09-17T19:27:49.113Z,14.30
2022-09-17T19:30:16.991Z,14.10
2022-09-17T19:32:48.060Z,14.20
2022-09-17T19:35:17.396Z,14.30
2022-09-17T19:37:45.233Z,14.30
2022-09-17T19:40:13.330Z,14.40
2022-09-17T19:42:41.261Z,14.40
2022-09-17T19:45:09.722Z,14.20
2022-09-17T19:47:37.551Z,14.30
2022-09-17T19:50:05.616Z,14.30
2022-09-17T19:52:34.838Z,14.30
2022-09-17T19:55:02.702Z,14.30
2022-09-17T19:57:30.489Z,14.10
2022-09-17T19:59:58.460Z,14.20
2022-09-17T20:02:26.337Z,14.00
2022-09-17T20:07:22.368Z,13.90
2022-09-17T20:09:51.603Z,13.80
2022-09-17T20:12:19.428Z,13.80
2022-09-17T20:14:47.225Z,13.80
2022-09-17T20:17:15.126Z,13.50
2022-09-17T20:19:42.941Z,13.50
2022-09-17T20:22:10.773Z,13.70
2022-09-17T20:24:38.712Z,13.60
2022-09-17T20:27:07.965Z,13.60
2022-09-17T20:29:35.789Z,13.60
2022-09-17T20:32:03.611Z,13.50
2022-09-17T20:34:31.460Z,13.60
2022-09-17T20:37:12.731Z,13.60
2022-09-17T20:39:41.581Z,13.60
2022-09-17T20:42:10.736Z,13.60
2022-09-17T20:44:38.574Z,13.60
2022-09-17T20:47:06.469Z,13.60
2022-09-17T20:49:34.611Z,13.60
2022-09-17T20:52:03.225Z,13.60
2022-09-17T20:54:31.043Z,13.60
2022-09-17T20:56:58.859Z,13.60
2022-09-17T20:59:46.445Z,13.60
2022-09-17T21:02:15.146Z,13.50
2022-09-17T21:04:42.972Z,13.70
2022-09-17T21:07:10.771Z,13.60
2022-09-17T21:09:41.930Z,13.50
2022-09-17T21:12:10.174Z,13.50
2022-09-17T21:14:39.381Z,13.50
2022-09-17T21:17:07.408Z,13.60
2022-09-17T21:19:35.210Z,13.60
2022-09-17T21:22:03.008Z,13.50
2022-09-17T21:24:30.860Z,13.50
2022-09-17T21:26:58.660Z,13.50
2022-09-17T21:29:26.491Z,13.40
2022-09-17T21:31:56.568Z,13.50
2022-09-17T21:34:24.489Z,13.50
2022-09-17T21:36:52.294Z,13.30
2022-09-17T21:39:20.138Z,13.40
2022-09-17T21:41:48.866Z,13.20
2022-09-17T21:44:16.889Z,13.20
2022-09-17T21:46:44.778Z,13.30
2022-09-17T21:49:16.365Z,13.40
2022-09-17T21:51:44.184Z,13.40
2022-09-17T21:54:12.741Z,13.30
2022-09-17T21:56:40.583Z,13.30
2022-09-17T21:59:09.757Z,13.30
2022-09-17T22:01:39.874Z,13.20
2022-09-17T22:04:08.582Z,13.30
2022-09-17T22:06:38.314Z,13.10
2022-09-17T22:09:06.992Z,13.20
2022-09-17T22:11:35.947Z,13.30
2022-09-17T22:14:08.783Z,13.20
2022-09-17T22:16:37.698Z,13.20
2022-09-17T22:19:05.942Z,13.20
2022-09-17T22:21:35.100Z,13.20
2022-09-17T22:24:04.913Z,13.20
2022-09-17T22:26:34.994Z,13.10
2022-09-17T22:29:03.828Z,13.20
2022-09-17T22:31:31.725Z,13.20
2022-09-17T22:33:59.617Z,13.20
2022-09-17T22:36:27.837Z,13.30
2022-09-17T22:38:56.647Z,13.30
2022-09-17T22:41:26.632Z,13.20
2022-09-17T22:43:55.203Z,13.20
2022-09-17T22:46:24.115Z,13.20
2022-09-17T22:48:52.137Z,13.20
2022-09-17T22:51:19.946Z,13.30
2022-09-17T22:53:47.760Z,13.30
2022-09-17T22:56:16.530Z,13.30
2022-09-17T22:58:45.726Z,13.30
2022-09-17T23:01:15.537Z,13.20
2022-09-17T23:03:43.827Z,13.20
2022-09-17T23:06:12.766Z,13.20
2022-09-17T23:08:40.753Z,13.20
2022-09-17T23:11:10.333Z,13.20
2022-09-17T23:13:38.116Z,13.20
2022-09-17T23:16:08.437Z,13.20
2022-09-17T23:18:36.711Z,13.40
2022-09-17T23:21:07.044Z,13.40
2022-09-17T23:23:35.438Z,13.40
2022-09-17T23:26:04.715Z,13.30
2022-09-17T23:28:32.579Z,13.40
2022-09-17T23:31:00.446Z,13.30
2022-09-17T23:33:29.644Z,13.30
2022-09-17T23:36:03.433Z,13.30
2022-09-17T23:38:31.541Z,13.20
2022-09-17T23:41:07.703Z,13.20
2022-09-17T23:43:35.526Z,13.20
2022-09-17T23:46:03.389Z,13.30
2022-09-17T23:48:32.593Z,13.20
2022-09-17T23:51:00.397Z,13.20
2022-09-17T23:53:29.965Z,13.20
2022-09-17T23:55:57.818Z,13.20
2022-09-17T23:58:25.598Z,13.20
